createdAt,value
2022-09-28T00:01:10.457Z,9.42
2022-09-28T00:03:59.774Z,9.35
2022-09-28T00:06:45.503Z,9.42
2022-09-28T00:09:30.684Z,9.50
2022-09-28T00:12:16.321Z,9.44
2022-09-28T00:15:03.106Z,9.34
2022-09-28T00:17:48.733Z,9.11
2022-09-28T00:20:33.983Z,9.25
2022-09-28T00:23:19.166Z,9.17
2022-09-28T00:26:05.619Z,9.22
2022-09-28T00:28:52.654Z,9.25
2022-09-28T00:31:38.196Z,9.14
2022-09-28T00:34:23.406Z,9.15
2022-09-28T00:37:09.830Z,9.12
2022-09-28T00:39:55.670Z,9.12
2022-09-28T00:42:42.832Z,9.02
2022-09-28T00:45:28.489Z,9.10
2022-09-28T00:48:13.843Z,8.92
2022-09-28T00:51:02.427Z,8.96
2022-09-28T00:53:49.964Z,8.85
2022-09-28T00:56:40.318Z,8.81
2022-09-28T00:59:26.638Z,8.82
2022-09-28T01:02:12.076Z,8.92
2022-09-28T01:04:59.429Z,8.82
2022-09-28T01:07:47.028Z,8.80
2022-09-28T01:10:32.385Z,8.93
2022-09-28T01:13:19.343Z,8.91
2022-09-28T01:16:12.928Z,8.91
2022-09-28T01:19:16.870Z,8.80
2022-09-28T01:22:20.989Z,8.79
2022-09-28T01:25:12.943Z,8.80
2022-09-28T01:28:05.553Z,8.83
2022-09-28T01:31:07.470Z,8.61
2022-09-28T01:33:57.457Z,8.64
2022-09-28T01:36:48.571Z,8.59
2022-09-28T01:39:39.540Z,8.45
2022-09-28T01:42:31.126Z,8.42
2022-09-28T01:45:26.209Z,8.53
2022-09-28T01:48:17.388Z,8.46
2022-09-28T01:51:08.116Z,8.40
2022-09-28T01:53:58.402Z,8.31
2022-09-28T01:56:49.558Z,8.20
2022-09-28T01:59:38.347Z,8.23
2022-09-28T02:02:30.197Z,8.24
2022-09-28T02:05:20.917Z,8.28
2022-09-28T02:08:27.160Z,8.38
2022-09-28T02:11:15.694Z,8.23
2022-09-28T02:14:05.142Z,8.40
2022-09-28T02:16:54.195Z,8.40
2022-09-28T02:19:40.400Z,8.29
2022-09-28T02:22:33.753Z,8.25
2022-09-28T02:25:38.350Z,8.18
2022-09-28T02:28:23.956Z,8.28
2022-09-28T02:31:09.358Z,8.04
2022-09-28T02:33:57.606Z,8.11
2022-09-28T02:36:45.019Z,8.02
2022-09-28T02:39:30.518Z,8.04
2022-09-28T02:42:29.460Z,8.17
2022-09-28T02:45:43.960Z,8.27
2022-09-28T02:49:17.236Z,8.32
2022-09-28T02:52:26.951Z,8.33
2022-09-28T02:55:48.737Z,8.31
2022-09-28T02:58:47.883Z,8.44
2022-09-28T03:01:44.595Z,8.41
2022-09-28T03:04:44.650Z,8.48
2022-09-28T03:07:36.753Z,8.38
2022-09-28T03:10:31.137Z,8.40
2022-09-28T03:13:17.359Z,8.51
2022-09-28T03:16:15.427Z,8.39
2022-09-28T03:19:01.061Z,8.56
2022-09-28T03:21:46.373Z,8.68
2022-09-28T03:24:32.124Z,8.61
2022-09-28T03:27:17.588Z,8.60
2022-09-28T03:30:03.799Z,8.57
2022-09-28T03:32:58.457Z,8.53
2022-09-28T03:35:46.876Z,8.47
2022-09-28T03:38:32.223Z,8.33
2022-09-28T03:41:17.619Z,8.54
2022-09-28T03:44:03.576Z,8.68
2022-09-28T03:46:49.181Z,8.49
2022-09-28T03:49:34.521Z,8.66
2022-09-28T03:52:19.653Z,8.85
2022-09-28T03:55:05.619Z,8.89
2022-09-28T03:57:55.825Z,8.83
2022-09-28T04:00:41.007Z,8.93
2022-09-28T04:03:26.610Z,8.87
2022-09-28T04:06:12.615Z,8.97
2022-09-28T04:08:58.251Z,8.81
2022-09-28T04:12:02.803Z,8.78
2022-09-28T04:14:49.510Z,8.75
2022-09-28T04:17:39.783Z,8.73
2022-09-28T04:20:25.652Z,8.81
2022-09-28T04:23:11.333Z,8.76
2022-09-28T04:25:56.944Z,8.82
2022-09-28T04:29:06.309Z,8.72
2022-09-28T04:31:53.723Z,8.53
2022-09-28T04:34:43.730Z,8.51
2022-09-28T04:37:31.286Z,8.63
2022-09-28T04:40:16.612Z,8.68
2022-09-28T04:43:02.308Z,8.58
2022-09-28T04:45:48.429Z,8.60
2022-09-28T04:48:33.798Z,8.45
2022-09-28T04:51:19.485Z,8.42
2022-09-28T04:54:04.685Z,8.21
2022-09-28T04:56:51.123Z,8.27
2022-09-28T04:59:37.649Z,8.20
2022-09-28T05:02:23.265Z,8.11
2022-09-28T05:05:08.780Z,8.12
2022-09-28T05:07:58.180Z,7.99
2022-09-28T05:10:43.817Z,7.93
2022-09-28T05:13:30.345Z,8.06
2022-09-28T05:16:16.459Z,7.92
2022-09-28T05:19:01.938Z,8.15
2022-09-28T05:21:48.727Z,8.26
2022-09-28T05:24:34.466Z,8.23
2022-09-28T05:27:19.893Z,8.27
2022-09-28T05:30:05.861Z,8.37
2022-09-28T05:32:51.567Z,8.30
2022-09-28T05:35:37.047Z,8.45
2022-09-28T05:38:23.046Z,8.44
2022-09-28T05:41:08.482Z,8.45
2022-09-28T05:43:55.025Z,8.42
2022-09-28T05:46:40.654Z,8.40
2022-09-28T05:49:29.042Z,8.54
2022-09-28T05:52:14.856Z,8.50
2022-09-28T05:55:00.457Z,8.45
2022-09-28T05:57:46.092Z,8.54
2022-09-28T06:00:33.373Z,8.49
2022-09-28T06:03:18.995Z,8.58
2022-09-28T06:06:04.506Z,8.78
2022-09-28T06:08:50.038Z,8.83
2022-09-28T06:11:35.549Z,8.91
2022-09-28T06:14:21.206Z,8.96
2022-09-28T06:17:06.734Z,9.21
2022-09-28T06:19:53.153Z,9.14
2022-09-28T06:22:39.129Z,9.22
2022-09-28T06:25:25.019Z,9.43
2022-09-28T06:28:13.522Z,9.24
2022-09-28T06:31:02.002Z,9.18
2022-09-28T06:33:48.258Z,9.23
2022-09-28T06:36:33.815Z,9.27
2022-09-28T06:39:19.641Z,9.39
2022-09-28T06:42:04.975Z,9.27
2022-09-28T06:44:50.420Z,9.28
2022-09-28T06:47:35.901Z,9.09
2022-09-28T06:50:21.301Z,9.14
2022-09-28T06:53:10.298Z,9.48
2022-09-28T06:55:56.068Z,9.38
2022-09-28T06:58:41.607Z,9.75
2022-09-28T07:01:27.282Z,10.16
2022-09-28T07:04:12.693Z,10.18
2022-09-28T07:06:59.675Z,10.38
2022-09-28T07:09:50.343Z,10.97
2022-09-28T07:12:38.747Z,10.70
2022-09-28T07:15:24.586Z,10.32
2022-09-28T07:18:11.251Z,10.36
2022-09-28T07:20:57.479Z,10.65
2022-09-28T07:23:52.160Z,10.83
2022-09-28T07:26:38.983Z,10.87
2022-09-28T07:29:25.247Z,10.96
2022-09-28T07:32:10.885Z,10.76
2022-09-28T07:34:58.860Z,10.59
2022-09-28T07:37:44.678Z,10.77
2022-09-28T07:40:50.078Z,10.89
2022-09-28T07:43:35.606Z,11.11
2022-09-28T07:46:22.101Z,11.14
2022-09-28T07:49:11.383Z,11.29
2022-09-28T07:51:58.085Z,10.95
2022-09-28T07:54:43.393Z,10.41
2022-09-28T07:57:28.985Z,10.39
2022-09-28T08:00:14.941Z,10.39
2022-09-28T08:03:01.132Z,10.46
2022-09-28T08:05:47.388Z,10.68
2022-09-28T08:08:35.762Z,10.74
2022-09-28T08:11:21.318Z,10.79
2022-09-28T08:14:07.135Z,10.44
2022-09-28T08:16:53.397Z,10.53
2022-09-28T08:19:58.023Z,10.71
2022-09-28T08:22:44.140Z,10.66
2022-09-28T08:25:29.458Z,10.95
2022-09-28T08:28:17.483Z,10.68
2022-09-28T08:31:03.285Z,10.68
2022-09-28T08:33:53.703Z,10.72
2022-09-28T08:36:39.415Z,10.91
2022-09-28T08:39:25.001Z,10.69
2022-09-28T08:42:37.413Z,10.89
2022-09-28T08:45:27.519Z,11.29
2022-09-28T08:48:48.200Z,11.36
2022-09-28T08:51:53.729Z,11.25
2022-09-28T08:55:14.629Z,11.41
2022-09-28T08:58:14.810Z,11.71
2022-09-28T09:01:00.661Z,12.50
2022-09-28T09:03:48.640Z,13.07
2022-09-28T09:07:10.391Z,13.40
2022-09-28T09:10:22.095Z,12.84
2022-09-28T09:13:40.171Z,13.27
2022-09-28T09:16:35.589Z,13.06
2022-09-28T09:19:35.459Z,13.04
2022-09-28T09:22:38.959Z,12.83
2022-09-28T09:25:45.520Z,12.89
2022-09-28T09:29:04.706Z,13.20
2022-09-28T09:32:20.369Z,13.70
2022-09-28T09:35:49.540Z,15.15
2022-09-28T09:39:03.060Z,15.71
2022-09-28T09:42:23.524Z,16.12
2022-09-28T09:45:36.811Z,17.24
2022-09-28T09:48:29.759Z,17.40
2022-09-28T09:51:32.832Z,16.55
2022-09-28T09:54:32.858Z,16.25
2022-09-28T09:57:30.031Z,15.99
2022-09-28T10:00:16.285Z,15.25
2022-09-28T10:03:02.954Z,15.27
2022-09-28T10:05:55.995Z,15.27
2022-09-28T10:08:46.853Z,15.00
2022-09-28T10:11:37.112Z,15.34
2022-09-28T10:14:24.781Z,15.17
2022-09-28T10:17:15.232Z,14.96
2022-09-28T10:20:01.046Z,15.31
2022-09-28T10:22:47.083Z,15.65
2022-09-28T10:25:37.446Z,15.71
2022-09-28T10:28:34.035Z,15.69
2022-09-28T10:31:37.970Z,16.22
2022-09-28T10:34:30.736Z,17.32
2022-09-28T10:37:17.982Z,18.69
2022-09-28T10:40:03.481Z,18.78
2022-09-28T10:42:48.873Z,17.64
2022-09-28T10:45:36.949Z,17.25
2022-09-28T10:48:22.398Z,16.76
2022-09-28T10:51:08.174Z,16.69
2022-09-28T10:54:02.070Z,16.01
2022-09-28T10:56:49.468Z,15.09
2022-09-28T10:59:39.138Z,14.66
2022-09-28T11:02:35.663Z,14.38
2022-09-28T11:05:24.609Z,14.40
2022-09-28T11:08:25.066Z,14.27
2022-09-28T11:11:13.484Z,14.26
2022-09-28T11:14:03.424Z,14.23
2022-09-28T11:17:08.940Z,13.63
2022-09-28T11:19:56.242Z,13.32
2022-09-28T11:22:42.274Z,13.55
2022-09-28T11:25:29.800Z,13.54
2022-09-28T11:28:23.913Z,13.41
2022-09-28T11:31:09.999Z,13.10
2022-09-28T11:34:31.421Z,13.35
2022-09-28T11:37:55.526Z,13.44
2022-09-28T11:40:58.975Z,13.53
2022-09-28T11:43:52.358Z,13.46
2022-09-28T11:46:55.278Z,13.72
2022-09-28T11:49:49.736Z,14.22
2022-09-28T11:53:05.935Z,14.36
2022-09-28T11:55:59.546Z,14.86
2022-09-28T11:58:49.033Z,15.20
2022-09-28T12:01:43.584Z,15.22
2022-09-28T12:04:41.550Z,15.42
2022-09-28T12:07:37.330Z,16.45
2022-09-28T12:10:48.013Z,16.89
2022-09-28T12:13:37.262Z,17.33
2022-09-28T12:17:04.197Z,17.39
2022-09-28T12:19:59.277Z,18.21
2022-09-28T12:22:54.294Z,18.18
2022-09-28T12:25:46.610Z,17.72
2022-09-28T12:28:42.114Z,16.07
2022-09-28T12:31:39.734Z,16.38
2022-09-28T12:34:25.110Z,15.70
2022-09-28T12:37:36.221Z,15.18
2022-09-28T12:40:55.604Z,15.13
2022-09-28T12:43:54.478Z,15.43
2022-09-28T12:46:47.673Z,15.33
2022-09-28T12:53:07.287Z,15.91
2022-09-28T12:56:18.029Z,15.49
2022-09-28T12:59:18.053Z,15.98
2022-09-28T13:02:42.227Z,15.43
2022-09-28T13:05:44.158Z,15.22
2022-09-28T13:08:46.640Z,15.35
2022-09-28T13:11:41.203Z,15.66
2022-09-28T13:14:53.065Z,15.67
2022-09-28T13:17:46.404Z,15.70
2022-09-28T13:20:55.604Z,15.42
2022-09-28T13:23:46.745Z,14.96
2022-09-28T13:26:40.337Z,14.80
2022-09-28T13:29:27.025Z,14.55
2022-09-28T13:32:12.937Z,14.83
2022-09-28T13:34:59.300Z,14.81
2022-09-28T13:37:45.310Z,14.84
2022-09-28T13:41:04.527Z,15.17
2022-09-28T13:44:12.277Z,15.27
2022-09-28T13:47:20.006Z,15.79
2022-09-28T13:50:34.588Z,14.82
2022-09-28T13:53:19.736Z,15.76
2022-09-28T13:56:36.109Z,17.52
2022-09-28T13:59:26.587Z,16.97
2022-09-28T14:02:37.998Z,16.29
2022-09-28T14:05:23.362Z,15.86
2022-09-28T14:08:08.723Z,15.69
2022-09-28T14:10:56.477Z,15.46
2022-09-28T14:13:42.410Z,15.22
2022-09-28T14:16:33.274Z,14.84
2022-09-28T14:19:24.214Z,14.67
2022-09-28T14:22:44.854Z,14.39
2022-09-28T14:25:32.234Z,14.67
2022-09-28T14:28:36.728Z,14.79
2022-09-28T14:31:28.857Z,14.74
2022-09-28T14:34:33.970Z,15.58
2022-09-28T14:37:44.288Z,15.60
2022-09-28T14:41:10.012Z,15.36
2022-09-28T14:44:08.562Z,15.56
2022-09-28T14:47:24.891Z,15.86
2022-09-28T14:50:26.886Z,15.53
2022-09-28T14:53:21.988Z,15.56
2022-09-28T14:56:08.786Z,15.65
2022-09-28T14:58:57.856Z,15.43
2022-09-28T15:01:55.930Z,15.71
2022-09-28T15:04:49.756Z,15.63
2022-09-28T15:07:52.539Z,15.94
2022-09-28T15:10:42.515Z,16.13
2022-09-28T15:13:28.826Z,16.29
2022-09-28T15:16:17.221Z,16.09
2022-09-28T15:19:29.812Z,16.48
2022-09-28T15:22:20.366Z,17.29
2022-09-28T15:25:15.181Z,17.91
2022-09-28T15:28:13.312Z,18.16
2022-09-28T15:31:02.418Z,18.27
2022-09-28T15:34:06.376Z,16.99
2022-09-28T15:36:56.315Z,16.20
2022-09-28T15:39:42.284Z,15.75
2022-09-28T15:42:27.509Z,15.96
2022-09-28T15:45:39.379Z,15.42
2022-09-28T15:48:40.595Z,14.91
2022-09-28T15:51:28.327Z,14.62
2022-09-28T15:54:24.754Z,14.69
2022-09-28T15:57:32.775Z,14.08
2022-09-28T16:00:21.307Z,14.11
2022-09-28T16:03:06.712Z,14.13
2022-09-28T16:05:58.540Z,14.29
2022-09-28T16:08:45.876Z,14.36
2022-09-28T16:11:39.546Z,14.24
2022-09-28T16:14:27.152Z,13.98
2022-09-28T16:17:32.703Z,13.70
2022-09-28T16:20:54.380Z,14.13
2022-09-28T16:23:41.650Z,13.83
2022-09-28T16:26:33.352Z,13.84
2022-09-28T16:29:39.697Z,13.87
2022-09-28T16:32:25.177Z,13.73
2022-09-28T16:35:10.869Z,13.76
2022-09-28T16:38:17.676Z,13.58
2022-09-28T16:41:03.075Z,13.23
2022-09-28T16:43:49.673Z,13.19
2022-09-28T16:46:37.509Z,12.99
2022-09-28T16:49:25.242Z,12.91
2022-09-28T16:52:12.482Z,12.48
2022-09-28T16:55:38.832Z,12.26
2022-09-28T16:58:22.487Z,11.96
2022-09-28T17:01:12.048Z,11.86
2022-09-28T17:03:57.645Z,11.61
2022-09-28T17:06:43.457Z,11.37
2022-09-28T17:09:29.331Z,11.07
2022-09-28T17:12:24.470Z,11.01
2022-09-28T17:15:09.976Z,10.86
2022-09-28T17:17:55.770Z,10.66
2022-09-28T17:20:44.133Z,10.62
2022-09-28T17:23:30.057Z,10.52
2022-09-28T17:26:30.592Z,10.35
2022-09-28T17:29:16.501Z,10.34
2022-09-28T17:32:02.268Z,10.20
2022-09-28T17:35:00.872Z,9.97
2022-09-28T17:37:52.581Z,9.96
2022-09-28T17:40:39.038Z,9.85
2022-09-28T17:43:24.680Z,9.78
2022-09-28T17:46:27.316Z,9.78
2022-09-28T17:49:12.738Z,9.70
2022-09-28T17:51:58.214Z,9.62
2022-09-28T17:54:44.132Z,9.54
2022-09-28T17:57:29.523Z,9.51
2022-09-28T18:00:16.879Z,9.52
2022-09-28T18:03:02.319Z,9.39
2022-09-28T18:05:53.566Z,9.18
2022-09-28T18:08:39.155Z,9.13
2022-09-28T18:11:24.844Z,8.94
2022-09-28T18:14:11.321Z,8.88
2022-09-28T18:16:57.355Z,8.86
2022-09-28T18:19:42.933Z,8.80
2022-09-28T18:22:28.751Z,8.76
2022-09-28T18:25:14.299Z,8.74
2022-09-28T18:28:00.080Z,8.71
2022-09-28T18:30:45.865Z,8.68
2022-09-28T18:33:31.427Z,8.64
2022-09-28T18:36:17.064Z,8.63
2022-09-28T18:39:03.085Z,8.48
2022-09-28T18:41:48.462Z,8.42
2022-09-28T18:44:34.032Z,8.42
2022-09-28T18:47:19.793Z,8.31
2022-09-28T18:50:06.003Z,8.26
2022-09-28T18:52:51.531Z,8.17
2022-09-28T18:55:39.260Z,8.15
2022-09-28T18:58:24.860Z,8.27
2022-09-28T19:01:29.396Z,8.18
2022-09-28T19:04:15.897Z,8.13
2022-09-28T19:07:01.462Z,8.08
2022-09-28T19:09:47.160Z,8.02
2022-09-28T19:12:32.617Z,7.95
2022-09-28T19:15:20.060Z,8.12
2022-09-28T19:18:05.399Z,8.05
2022-09-28T19:20:50.889Z,8.02
2022-09-28T19:23:37.138Z,7.85
2022-09-28T19:26:25.308Z,7.78
2022-09-28T19:29:10.937Z,7.71
2022-09-28T19:31:57.072Z,7.74
2022-09-28T19:34:45.413Z,7.77
2022-09-28T19:37:35.273Z,7.73
2022-09-28T19:40:20.703Z,7.73
2022-09-28T19:43:06.422Z,7.70
2022-09-28T19:45:53.634Z,7.66
2022-09-28T19:48:42.217Z,7.62
2022-09-28T19:51:28.739Z,7.62
2022-09-28T19:54:14.756Z,7.50
2022-09-28T19:57:00.759Z,7.56
2022-09-28T19:59:50.679Z,7.52
2022-09-28T20:02:38.095Z,7.48
2022-09-28T20:05:23.766Z,7.61
2022-09-28T20:08:09.642Z,7.52
2022-09-28T20:10:56.664Z,7.52
2022-09-28T20:13:42.286Z,7.48
2022-09-28T20:16:28.778Z,7.52
2022-09-28T20:19:14.801Z,7.45
2022-09-28T20:22:02.488Z,7.30
2022-09-28T20:24:47.873Z,7.25
2022-09-28T20:27:33.496Z,7.27
2022-09-28T20:30:18.733Z,7.20
2022-09-28T20:33:07.341Z,7.12
2022-09-28T20:35:52.939Z,7.13
2022-09-28T20:38:40.417Z,7.20
2022-09-28T20:41:26.378Z,7.05
2022-09-28T20:44:12.098Z,7.14
2022-09-28T20:46:57.499Z,7.05
2022-09-28T20:49:42.830Z,6.98
2022-09-28T20:52:28.611Z,7.07
2022-09-28T20:55:14.053Z,6.93
2022-09-28T20:58:03.194Z,6.96
2022-09-28T21:00:48.803Z,7.02
2022-09-28T21:03:35.273Z,6.95
2022-09-28T21:06:22.293Z,6.93
2022-09-28T21:09:09.546Z,6.96
2022-09-28T21:11:55.697Z,6.94
2022-09-28T21:14:41.088Z,7.12
2022-09-28T21:17:26.795Z,7.06
2022-09-28T21:20:12.138Z,7.01
2022-09-28T21:22:57.837Z,6.96
2022-09-28T21:25:45.494Z,6.92
2022-09-28T21:28:30.943Z,6.87
2022-09-28T21:31:16.516Z,6.81
2022-09-28T21:34:04.579Z,6.81
2022-09-28T21:36:54.630Z,6.80
2022-09-28T21:39:40.101Z,6.80
2022-09-28T21:42:25.754Z,6.75
2022-09-28T21:45:11.363Z,6.77
2022-09-28T21:47:58.413Z,6.73
2022-09-28T21:51:04.065Z,6.73
2022-09-28T21:53:49.712Z,6.64
2022-09-28T21:56:35.295Z,6.69
2022-09-28T21:59:20.937Z,6.62
2022-09-28T22:02:06.511Z,6.58
2022-09-28T22:04:51.998Z,6.61
2022-09-28T22:07:38.729Z,6.55
2022-09-28T22:10:24.340Z,6.58
2022-09-28T22:13:09.658Z,6.51
2022-09-28T22:15:55.841Z,6.59
2022-09-28T22:18:41.935Z,6.48
2022-09-28T22:21:33.252Z,6.52
2022-09-28T22:24:18.967Z,6.43
2022-09-28T22:27:04.633Z,6.51
2022-09-28T22:29:50.979Z,6.51
2022-09-28T22:32:36.284Z,6.48
2022-09-28T22:35:21.733Z,6.55
2022-09-28T22:38:07.270Z,6.56
2022-09-28T22:40:56.445Z,6.53
2022-09-28T22:43:45.117Z,6.57
2022-09-28T22:46:33.626Z,6.65
2022-09-28T22:49:19.676Z,6.67
2022-09-28T22:52:05.224Z,6.64
2022-09-28T22:54:51.177Z,6.50
2022-09-28T22:57:36.747Z,6.52
2022-09-28T23:00:22.257Z,6.43
2022-09-28T23:03:07.841Z,6.51
2022-09-28T23:05:54.682Z,6.67
2022-09-28T23:08:40.299Z,6.54
2022-09-28T23:11:26.005Z,6.53
2022-09-28T23:14:12.425Z,6.45
2022-09-28T23:16:57.873Z,6.34
2022-09-28T23:19:43.536Z,6.41
2022-09-28T23:22:29.110Z,6.35
2022-09-28T23:25:16.097Z,6.46
2022-09-28T23:28:01.543Z,6.43
2022-09-28T23:30:47.920Z,6.30
2022-09-28T23:33:34.085Z,6.08
2022-09-28T23:36:19.773Z,6.20
2022-09-28T23:39:05.325Z,6.16
2022-09-28T23:41:50.883Z,6.07
2022-09-28T23:44:36.722Z,6.03
2022-09-28T23:47:21.955Z,6.02
2022-09-28T23:50:07.720Z,6.05
2022-09-28T23:52:53.580Z,6.05
2022-09-28T23:55:39.212Z,6.15
2022-09-28T23:58:25.650Z,6.18
